Billings, MT

10:19 PM MST on December 25, 2014 (GMT -0700)
Downtown Billings | Change Station
CLOSE
Current Station
Personal Weather Station
Location: Billings, MT
Elevation: 3127 ft
Nearby Weather Stations

Elev 3127 ft 45.78 °N, 108.50 °W | Updated 46 minutes ago

Overcast
Overcast
25.1 °F
Feels Like 25 °F
N
2.9
Wind Variable Wind from SSE
Gusts 4.5 mph

Today
High -- | Low -- °F
--% Chance of Precip.
Yesterday
High -- | Low -- °F
Precip. -- in
7:53 AM 4:34 PM
Waxing Crescent, 22% visible
Pressure 30.12 in
Visibility 10.0 miles
Clouds Few 1400 ft
Overcast 2700 ft
Windchill 25 °F
Dew Point 22 °F
Humidity 87%
Rainfall -999.00 in
Snow Depth Not available.
UV 0 out of 12
Pollen .10 out of 12
Air Quality Not available.
Flu Activity Not available.
METAR KBIL 260453Z 19004KT 10SM -SN FEW014 OVC027 M05/M07 A2999 RMK AO2 SLP199 P0000 T10501067 $

More Conditions Fewer Conditions

Pressure 30.12 in
Visibility 10.0 miles
Clouds Few 1400 ft
Overcast 2700 ft
Windchill 25 °F
Dew Point 22 °F
Humidity 87%
Rainfall -999.00 in
Snow Depth Not available.
UV 0 out of 12
Pollen .10 out of 12
Air Quality Not available.
Flu Activity Not available.
METAR KBIL 260453Z 19004KT 10SM -SN FEW014 OVC027 M05/M07 A2999 RMK AO2 SLP199 P0000 T10501067 $

More Conditions Fewer Conditions

10-Day Weather Forecast

Almanac

Astronomy

Dec. 25, 2014 Rise Set
Actual Time
Civil Twilight
Nautical Twilight
Astronomical Twilight
Moon
Length of Visible Light
Length of Day
Tomorrow will be .
, % of the Moon is Illuminated

Today's Extremes

State Highs State Lows

Community

WunderPhotos

Upload Photos

1,780,546 photos uploaded!

WunderBlogs® & News

Nearby

Air Quality

  Air Quality AQ Index Pollutant
Not available.

Snow Depth

Station Depth Elevation

Earthquake Activity

City Distance Mag. Time & Date
Minimum magnitude displayed is 2.5.

Coastal Water Temperatures

Place Temperature

Nearby Weather Stations